Time;durP1;ratioP1;P1;durP2;ratioP2;P2;SDS_P1;SDS_P2;PMS_P1;PMS_P2;Temp;Humidity;BMP_temperature;BMP_pressure;BME280_temperature;BME280_humidity;BME280_pressure;Samples;Min_cycle;Max_cycle;Signal;HPM_P1;HPM_P2
2022/01/31 00:01:05;;;;;;;24.13;8.95;;;8.10;99.90;;;;;;5116695;28;20377;-75
2022/01/31 00:03:34;;;;;;;21.38;9.40;;;8.20;99.90;;;;;;5116085;28;20634;-75
2022/01/31 00:06:00;;;;;;;21.77;10.55;;;8.20;99.90;;;;;;5116344;28;20051;-74
2022/01/31 00:08:26;;;;;;;13.68;7.47;;;8.20;99.90;;;;;;5116583;28;20020;-76
2022/01/31 00:10:52;;;;;;;22.13;14.52;;;8.20;99.90;;;;;;5116307;28;20027;-75
2022/01/31 00:13:23;;;;;;;18.27;7.65;;;8.20;99.90;;;;;;5116490;28;20472;-75
2022/01/31 00:15:54;;;;;;;25.67;11.95;;;8.10;99.90;;;;;;5116139;28;20027;-75
2022/01/31 00:18:20;;;;;;;17.98;10.55;;;8.20;99.90;;;;;;5116451;28;20026;-74
2022/01/31 00:20:46;;;;;;;22.67;10.90;;;8.20;99.90;;;;;;5116399;28;20016;-75
2022/01/31 00:23:12;;;;;;;21.83;8.77;;;8.20;99.90;;;;;;5116591;28;20020;-74
2022/01/31 00:25:38;;;;;;;16.58;6.95;;;8.20;99.90;;;;;;5116279;28;20034;-76
2022/01/31 00:28:03;;;;;;;16.23;7.00;;;8.20;99.90;;;;;;5116226;28;20030;-75
2022/01/31 00:30:29;;;;;;;12.50;6.30;;;8.30;99.90;;;;;;5115882;28;20046;-75
2022/01/31 00:32:55;;;;;;;12.88;5.53;;;8.30;99.90;;;;;;5115848;28;20511;-75
2022/01/31 00:35:21;;;;;;;17.65;6.28;;;8.20;99.90;;;;;;5115710;28;20024;-74
2022/01/31 00:37:46;;;;;;;16.95;6.40;;;8.20;99.90;;;;;;5115735;28;20031;-74
2022/01/31 00:40:12;;;;;;;12.05;5.35;;;8.20;99.90;;;;;;5116269;28;20016;-74
2022/01/31 00:42:39;;;;;;;13.45;5.78;;;8.20;99.90;;;;;;5116177;28;20020;-75
2022/01/31 00:47:34;;;;;;;15.37;5.73;;;8.10;99.90;;;;;;5116450;27;20114;-75
2022/01/31 00:50:10;;;;;;;14.50;5.70;;;8.20;99.90;;;;;;5115704;28;20051;-74
2022/01/31 00:52:38;;;;;;;16.25;9.32;;;8.20;99.90;;;;;;5115530;28;20024;-75
2022/01/31 00:55:06;;;;;;;20.95;7.93;;;8.20;99.90;;;;;;5115403;27;20038;-74
2022/01/31 00:57:31;;;;;;;13.85;5.60;;;8.20;99.90;;;;;;5115649;27;20054;-74
2022/01/31 00:59:57;;;;;;;14.07;5.03;;;8.20;99.90;;;;;;5115584;28;20073;-75
2022/01/31 01:02:24;;;;;;;12.70;4.78;;;8.20;99.90;;;;;;5115058;28;20510;-74
2022/01/31 01:04:50;;;;;;;12.82;4.68;;;8.30;99.90;;;;;;5115187;27;20016;-75
2022/01/31 01:07:17;;;;;;;11.02;4.13;;;8.30;99.90;;;;;;5115442;28;20051;-74
2022/01/31 01:09:46;;;;;;;15.52;5.32;;;8.30;99.90;;;;;;5115078;28;20023;-74
2022/01/31 01:12:14;;;;;;;13.73;5.30;;;8.30;99.90;;;;;;5115327;28;20497;-74
2022/01/31 01:14:41;;;;;;;10.05;4.80;;;8.40;99.90;;;;;;5114669;28;20074;-74
2022/01/31 01:17:07;;;;;;;12.52;5.07;;;8.40;99.90;;;;;;5115176;28;20023;-74
2022/01/31 01:19:32;;;;;;;9.73;4.88;;;8.40;99.90;;;;;;5115414;28;20099;-76
2022/01/31 01:21:58;;;;;;;8.35;4.50;;;8.40;99.90;;;;;;5114880;28;20016;-75
2022/01/31 01:24:24;;;;;;;10.80;4.78;;;8.40;99.90;;;;;;5114758;28;20541;-75
2022/01/31 01:26:49;;;;;;;9.98;4.50;;;8.40;99.90;;;;;;5114701;28;20031;-73
2022/01/31 01:29:16;;;;;;;11.45;4.97;;;8.40;99.90;;;;;;5114701;28;20056;-76
2022/01/31 01:31:46;;;;;;;12.73;6.35;;;8.40;99.90;;;;;;5114662;28;20035;-74
2022/01/31 01:34:12;;;;;;;9.68;5.40;;;8.40;99.90;;;;;;5114941;28;20020;-74
2022/01/31 01:36:38;;;;;;;10.75;4.63;;;8.40;99.90;;;;;;5114791;28;20114;-74
2022/01/31 01:39:05;;;;;;;11.68;5.10;;;8.40;99.90;;;;;;5114759;28;20015;-73
2022/01/31 01:41:31;;;;;;;12.77;5.35;;;8.40;99.90;;;;;;5114799;27;20019;-74
2022/01/31 01:43:57;;;;;;;8.32;4.38;;;8.50;99.90;;;;;;5114452;28;20015;-76
2022/01/31 01:46:23;;;;;;;11.05;4.70;;;8.60;99.90;;;;;;5114401;28;20072;-76
2022/01/31 01:48:49;;;;;;;9.27;4.55;;;8.60;99.90;;;;;;5114561;28;20112;-74
2022/01/31 01:51:15;;;;;;;12.10;4.50;;;8.60;99.90;;;;;;5113030;28;20488;-75
2022/01/31 01:53:41;;;;;;;9.90;4.93;;;8.70;99.90;;;;;;5114185;28;20028;-75
2022/01/31 01:56:07;;;;;;;8.48;4.30;;;8.70;99.90;;;;;;5114120;28;20046;-74
2022/01/31 01:58:41;;;;;;;9.82;4.82;;;8.70;99.90;;;;;;5114190;28;20020;-74
2022/01/31 02:01:08;;;;;;;12.60;4.50;;;8.70;99.90;;;;;;5114607;28;20027;-74
2022/01/31 02:03:35;;;;;;;8.07;3.92;;;8.80;99.90;;;;;;5114003;27;20164;-74
2022/01/31 02:06:02;;;;;;;10.43;4.75;;;8.70;99.90;;;;;;5114632;28;20038;-75
2022/01/31 02:08:29;;;;;;;7.93;3.88;;;8.80;99.90;;;;;;5114084;28;20027;-75
2022/01/31 02:10:55;;;;;;;8.45;3.88;;;8.80;99.90;;;;;;5114272;28;20035;-75
2022/01/31 02:13:21;;;;;;;9.38;4.28;;;8.80;99.90;;;;;;5113964;28;20466;-74
2022/01/31 02:15:50;;;;;;;7.28;3.58;;;8.90;99.90;;;;;;5114091;28;20023;-75
2022/01/31 02:18:17;;;;;;;6.60;3.53;;;8.90;99.90;;;;;;5113909;28;20032;-75
2022/01/31 02:20:44;;;;;;;7.93;3.58;;;8.90;99.90;;;;;;5113897;28;20497;-74
2022/01/31 02:23:12;;;;;;;7.75;3.40;;;8.90;99.90;;;;;;5113808;28;20066;-74
2022/01/31 02:26:03;;;;;;;8.13;4.03;;;8.90;99.90;;;;;;5111705;28;20115;-74
2022/01/31 02:28:31;;;;;;;8.75;4.05;;;8.90;99.90;;;;;;5114087;28;20034;-75
2022/01/31 02:30:57;;;;;;;8.40;4.50;;;8.90;99.90;;;;;;5113724;28;20025;-75
2022/01/31 02:33:23;;;;;;;8.85;4.25;;;8.90;99.90;;;;;;5114000;28;20058;-75
2022/01/31 02:35:53;;;;;;;9.20;3.90;;;8.90;99.90;;;;;;5113636;28;20028;-74
2022/01/31 02:38:18;;;;;;;10.30;3.90;;;8.90;99.90;;;;;;5114204;28;20024;-75
2022/01/31 02:40:48;;;;;;;8.77;4.25;;;8.90;99.90;;;;;;5113609;28;20526;-74
2022/01/31 02:43:29;;;;;;;10.90;3.85;;;8.80;99.90;;;;;;5113644;28;20016;-74
2022/01/31 02:45:54;;;;;;;6.55;3.38;;;8.90;99.90;;;;;;5113947;28;20032;-75
2022/01/31 02:48:23;;;;;;;7.30;4.22;;;8.90;99.90;;;;;;5113574;28;20031;-75
2022/01/31 02:50:49;;;;;;;10.38;4.07;;;8.90;99.90;;;;;;5112305;28;20096;-76
2022/01/31 02:53:26;;;;;;;7.10;3.80;;;8.90;99.90;;;;;;5113540;28;20051;-75
2022/01/31 02:55:54;;;;;;;7.15;3.78;;;8.90;99.90;;;;;;5111854;28;20034;-74
2022/01/31 02:58:21;;;;;;;9.27;4.10;;;8.90;99.90;;;;;;5113508;28;20024;-74
2022/01/31 03:00:47;;;;;;;7.32;3.97;;;8.90;99.90;;;;;;5113697;28;20028;-75
2022/01/31 03:03:13;;;;;;;6.95;3.47;;;8.90;99.90;;;;;;5113232;28;20409;-75
2022/01/31 03:05:38;;;;;;;5.38;3.33;;;8.90;99.90;;;;;;5112059;28;20031;-74
2022/01/31 03:08:05;;;;;;;6.25;3.50;;;8.90;99.90;;;;;;5113632;28;20027;-75
2022/01/31 03:10:31;;;;;;;7.93;3.78;;;8.90;99.90;;;;;;5113404;28;20103;-75
2022/01/31 03:12:57;;;;;;;7.78;3.80;;;8.80;99.90;;;;;;5113308;28;20055;-74
2022/01/31 03:15:22;;;;;;;8.88;3.97;;;8.80;99.90;;;;;;5113192;28;20389;-74
2022/01/31 03:17:50;;;;;;;8.13;3.17;;;8.80;99.90;;;;;;5113319;28;20020;-76
2022/01/31 03:20:18;;;;;;;6.10;3.40;;;8.80;99.90;;;;;;5113529;28;20026;-74
2022/01/31 03:22:44;;;;;;;7.13;3.60;;;8.80;99.90;;;;;;5113260;28;20409;-74
2022/01/31 03:25:10;;;;;;;9.55;3.53;;;8.70;99.90;;;;;;5113210;28;20016;-75
2022/01/31 03:27:36;;;;;;;5.10;2.72;;;8.80;99.90;;;;;;5113167;28;20437;-75
2022/01/31 03:30:03;;;;;;;6.47;3.50;;;8.80;99.90;;;;;;5113192;28;20493;-75
2022/01/31 03:32:29;;;;;;;6.32;3.38;;;8.80;99.90;;;;;;5113436;28;20016;-76
2022/01/31 03:34:55;;;;;;;10.35;4.82;;;8.80;99.90;;;;;;5113053;28;20028;-75
2022/01/31 03:37:20;;;;;;;10.20;5.82;;;8.80;99.90;;;;;;5114215;28;20389;-74
2022/01/31 03:39:46;;;;;;;8.38;4.07;;;8.80;99.90;;;;;;5117147;28;20469;-75
2022/01/31 03:42:15;;;;;;;6.00;3.45;;;8.80;99.90;;;;;;5117111;28;20108;-75
2022/01/31 03:44:43;;;;;;;6.33;3.03;;;8.70;99.90;;;;;;5117045;28;20461;-76
2022/01/31 03:47:09;;;;;;;5.55;2.72;;;8.70;99.90;;;;;;5116738;28;20034;-76
2022/01/31 03:49:34;;;;;;;5.15;2.92;;;8.70;99.90;;;;;;5116981;28;20016;-75
2022/01/31 03:52:00;;;;;;;6.75;2.47;;;8.70;99.90;;;;;;5116594;28;20032;-75
2022/01/31 03:54:25;;;;;;;5.15;2.50;;;8.60;99.90;;;;;;5116539;28;20026;-74
2022/01/31 03:56:51;;;;;;;7.13;3.00;;;8.70;99.90;;;;;;5116488;28;20024;-74
2022/01/31 03:59:17;;;;;;;4.65;2.67;;;8.70;99.90;;;;;;5116769;28;20077;-74
2022/01/31 04:01:42;;;;;;;3.60;2.00;;;8.70;99.90;;;;;;5116734;28;20442;-75
2022/01/31 04:04:10;;;;;;;3.40;2.20;;;8.70;99.90;;;;;;5115963;28;20089;-74
2022/01/31 04:06:38;;;;;;;4.65;2.08;;;8.70;99.90;;;;;;5116402;27;20020;-74
2022/01/31 04:09:03;;;;;;;6.07;2.20;;;8.70;99.90;;;;;;5116607;28;20354;-74
2022/01/31 04:11:29;;;;;;;3.20;1.80;;;8.80;99.90;;;;;;5116285;28;20110;-75
2022/01/31 04:13:55;;;;;;;3.42;2.00;;;8.80;99.90;;;;;;5116207;28;20062;-75
2022/01/31 04:16:20;;;;;;;7.75;2.10;;;8.80;99.90;;;;;;5116145;28;20067;-75
2022/01/31 04:18:46;;;;;;;6.18;1.90;;;8.80;99.90;;;;;;5116158;28;20056;-75
2022/01/31 04:21:13;;;;;;;3.97;1.65;;;8.90;99.90;;;;;;5116079;28;20024;-74
2022/01/31 04:23:39;;;;;;;8.13;2.20;;;8.80;99.90;;;;;;5114798;28;20140;-75
2022/01/31 04:26:11;;;;;;;6.53;1.95;;;8.90;99.90;;;;;;5114732;28;20069;-74
2022/01/31 04:33:48;;;;;;;12.68;2.75;;;9.00;99.90;;;;;;5115636;28;20111;-74
2022/01/31 04:36:17;;;;;;;10.35;2.20;;;9.10;99.90;;;;;;5115695;28;20110;-75
2022/01/31 04:38:44;;;;;;;12.00;2.45;;;9.10;99.90;;;;;;5115770;28;20019;-75
2022/01/31 04:41:10;;;;;;;12.75;2.63;;;9.10;99.90;;;;;;5115970;28;20027;-75
2022/01/31 04:43:36;;;;;;;15.75;2.83;;;9.10;99.90;;;;;;5115672;28;20027;-74
2022/01/31 04:46:06;;;;;;;13.57;2.47;;;9.10;99.90;;;;;;5115916;28;20474;-75
2022/01/31 04:48:33;;;;;;;19.55;3.70;;;9.10;99.90;;;;;;5114865;28;20043;-75
2022/01/31 04:50:58;;;;;;;15.18;3.05;;;9.00;99.90;;;;;;5115289;28;20039;-74
2022/01/31 04:53:24;;;;;;;11.57;2.28;;;9.00;99.90;;;;;;5115780;28;20023;-74
2022/01/31 04:55:51;;;;;;;19.95;3.30;;;9.00;99.90;;;;;;5115402;28;20024;-74
2022/01/31 04:58:17;;;;;;;18.05;2.65;;;8.90;99.90;;;;;;5115644;28;20015;-74
2022/01/31 05:00:43;;;;;;;19.92;2.88;;;8.90;99.90;;;;;;5115291;28;20016;-74
2022/01/31 05:03:14;;;;;;;12.25;2.90;;;8.90;99.90;;;;;;5115023;28;20048;-75
2022/01/31 05:05:42;;;;;;;11.52;3.60;;;8.80;99.90;;;;;;5115284;27;20397;-74
2022/01/31 05:08:08;;;;;;;12.65;2.88;;;8.80;99.90;;;;;;5115168;28;20030;-74
2022/01/31 05:10:34;;;;;;;20.48;3.50;;;8.80;99.90;;;;;;5115427;28;20492;-73
2022/01/31 05:13:01;;;;;;;18.00;4.07;;;8.80;99.90;;;;;;5115055;28;20024;-75
2022/01/31 05:15:27;;;;;;;16.02;2.63;;;8.80;99.90;;;;;;5114973;28;20028;-74
2022/01/31 05:17:52;;;;;;;16.33;3.45;;;8.80;99.90;;;;;;5115499;28;20026;-74
2022/01/31 05:20:19;;;;;;;19.88;4.13;;;8.80;99.90;;;;;;5114934;28;20516;-75
2022/01/31 05:22:45;;;;;;;14.40;2.63;;;8.80;99.90;;;;;;5113367;28;20026;-75
2022/01/31 05:25:11;;;;;;;13.52;3.45;;;8.80;99.90;;;;;;5115390;28;20095;-75
2022/01/31 05:27:37;;;;;;;13.23;3.05;;;8.80;99.90;;;;;;5115040;28;20047;-75
2022/01/31 05:30:04;;;;;;;16.08;3.17;;;8.70;99.90;;;;;;5114727;28;20064;-75
2022/01/31 05:32:30;;;;;;;15.05;2.67;;;8.70;99.90;;;;;;5114691;28;20030;-74
2022/01/31 05:34:55;;;;;;;17.02;3.40;;;8.70;99.90;;;;;;5114621;28;20024;-75
2022/01/31 05:37:21;;;;;;;14.88;3.35;;;8.60;99.90;;;;;;5113201;28;20463;-74
2022/01/31 05:39:47;;;;;;;14.88;2.78;;;8.70;99.90;;;;;;5114830;28;20022;-75
2022/01/31 05:42:13;;;;;;;10.50;2.88;;;8.70;99.90;;;;;;5114305;28;20397;-74
2022/01/31 05:44:39;;;;;;;14.48;3.60;;;8.60;99.90;;;;;;5114753;28;20024;-74
2022/01/31 05:47:05;;;;;;;13.20;3.35;;;8.60;99.90;;;;;;5114445;28;20537;-74
2022/01/31 05:49:30;;;;;;;12.65;2.58;;;8.70;99.90;;;;;;5114451;28;20023;-74
2022/01/31 05:52:04;;;;;;;13.93;3.17;;;8.70;99.90;;;;;;5114400;28;20026;-75
2022/01/31 05:54:31;;;;;;;16.27;3.05;;;8.70;99.90;;;;;;5114251;28;20108;-74
2022/01/31 05:56:57;;;;;;;14.35;4.15;;;8.60;99.90;;;;;;5114726;28;20016;-75
2022/01/31 05:59:24;;;;;;;18.50;4.88;;;8.70;99.90;;;;;;5115079;28;20438;-75
2022/01/31 06:01:49;;;;;;;20.23;6.25;;;8.70;99.90;;;;;;5113996;28;20032;-75
2022/01/31 06:04:15;;;;;;;15.93;4.82;;;8.70;99.90;;;;;;5113946;28;20050;-75
2022/01/31 06:06:41;;;;;;;17.70;4.20;;;8.70;99.90;;;;;;5114083;28;20024;-75
2022/01/31 06:09:06;;;;;;;18.27;5.18;;;8.70;99.90;;;;;;5114019;28;20027;-73
2022/01/31 06:11:34;;;;;;;16.55;4.32;;;8.70;99.90;;;;;;5114228;28;20034;-75
2022/01/31 06:14:03;;;;;;;15.60;4.32;;;8.70;99.90;;;;;;5113943;28;20404;-76
2022/01/31 06:16:29;;;;;;;15.88;3.15;;;8.70;99.90;;;;;;5113827;28;20028;-75
2022/01/31 06:18:56;;;;;;;8.38;2.67;;;8.80;99.90;;;;;;5114136;28;20034;-74
2022/01/31 06:21:21;;;;;;;15.10;3.22;;;8.80;99.90;;;;;;5113835;28;20040;-74
2022/01/31 06:23:47;;;;;;;11.20;2.63;;;8.80;99.90;;;;;;5113848;28;20098;-74
2022/01/31 06:26:13;;;;;;;14.55;3.05;;;8.80;99.90;;;;;;5114615;28;20377;-75
2022/01/31 06:28:40;;;;;;;14.10;2.50;;;8.80;99.90;;;;;;5113802;28;20027;-74
2022/01/31 06:31:06;;;;;;;15.38;3.05;;;8.80;99.90;;;;;;5113736;28;20420;-74
2022/01/31 06:33:32;;;;;;;11.15;2.65;;;8.80;99.90;;;;;;5113744;28;20043;-75
2022/01/31 06:35:59;;;;;;;13.30;2.47;;;8.80;99.90;;;;;;5112376;28;20388;-76
2022/01/31 06:38:25;;;;;;;13.70;2.60;;;8.70;99.90;;;;;;5113722;28;20511;-74
2022/01/31 06:40:51;;;;;;;14.93;3.33;;;8.70;99.90;;;;;;5113926;28;20022;-73
2022/01/31 06:43:17;;;;;;;11.73;3.15;;;8.70;99.90;;;;;;5113619;28;20447;-75
2022/01/31 06:45:43;;;;;;;13.10;3.15;;;8.60;99.90;;;;;;5113553;28;20030;-75
2022/01/31 06:48:08;;;;;;;14.25;4.47;;;8.60;99.90;;;;;;5113536;28;20028;-75
2022/01/31 06:50:34;;;;;;;10.43;2.65;;;8.60;99.90;;;;;;5113809;28;20055;-73
2022/01/31 06:53:01;;;;;;;10.13;2.95;;;8.60;99.90;;;;;;5114069;28;20027;-75
2022/01/31 06:55:29;;;;;;;13.63;2.53;;;8.50;99.90;;;;;;5113354;28;20377;-75
2022/01/31 06:57:56;;;;;;;12.57;2.80;;;8.50;99.90;;;;;;5113495;28;20020;-73
2022/01/31 07:00:22;;;;;;;11.27;2.85;;;8.40;99.90;;;;;;5113959;28;20015;-75
2022/01/31 07:02:49;;;;;;;14.27;3.00;;;8.40;99.90;;;;;;5113343;28;20196;-75
2022/01/31 07:05:16;;;;;;;10.20;3.38;;;8.40;99.90;;;;;;5113669;28;20071;-75
2022/01/31 07:07:43;;;;;;;14.02;2.78;;;8.40;99.90;;;;;;5113967;28;20024;-74
2022/01/31 07:10:10;;;;;;;13.10;3.35;;;8.40;99.90;;;;;;5113397;28;20020;-74
2022/01/31 07:12:40;;;;;;;13.90;3.08;;;8.40;99.90;;;;;;5114815;28;20389;-75
2022/01/31 07:15:10;;;;;;;15.52;5.78;;;8.50;99.90;;;;;;5117728;28;20024;-75
2022/01/31 07:17:37;;;;;;;12.25;2.65;;;8.40;99.90;;;;;;5116025;28;20389;-74
2022/01/31 07:20:05;;;;;;;19.70;3.33;;;8.40;99.90;;;;;;5117019;28;20486;-74
2022/01/31 07:22:36;;;;;;;14.20;2.40;;;8.40;99.90;;;;;;5117308;27;20020;-76
2022/01/31 07:25:07;;;;;;;11.80;3.25;;;8.40;99.90;;;;;;5117281;28;20107;-75
2022/01/31 07:27:33;;;;;;;9.80;2.03;;;8.40;99.90;;;;;;5117763;28;20077;-75
2022/01/31 07:29:59;;;;;;;14.38;2.50;;;8.40;99.90;;;;;;5117404;28;20027;-74
2022/01/31 07:32:25;;;;;;;13.05;3.20;;;8.30;99.90;;;;;;5115710;28;20511;-74
2022/01/31 07:34:55;;;;;;;15.18;3.20;;;8.30;99.90;;;;;;5116944;28;20085;-74
2022/01/31 07:37:24;;;;;;;10.37;2.20;;;8.30;99.90;;;;;;5115592;28;20457;-76
2022/01/31 07:39:51;;;;;;;14.10;3.13;;;8.30;99.90;;;;;;5116942;28;20429;-75
2022/01/31 07:42:18;;;;;;;14.85;3.00;;;8.20;99.90;;;;;;5116896;28;20022;-75
2022/01/31 07:44:44;;;;;;;12.63;2.55;;;8.20;99.90;;;;;;5115514;28;20031;-75
2022/01/31 07:47:10;;;;;;;12.27;2.45;;;8.20;99.90;;;;;;5117028;28;20026;-75
2022/01/31 07:49:36;;;;;;;12.98;3.20;;;8.20;99.90;;;;;;5116981;28;20031;-75
2022/01/31 07:52:01;;;;;;;11.82;2.65;;;8.20;99.90;;;;;;5115399;28;20396;-74
2022/01/31 07:54:28;;;;;;;12.48;2.83;;;8.20;99.90;;;;;;5116357;28;20028;-75
2022/01/31 07:56:56;;;;;;;18.02;3.03;;;8.20;99.90;;;;;;5116512;28;20396;-75
2022/01/31 07:59:22;;;;;;;10.48;2.78;;;8.20;99.90;;;;;;5116807;28;20015;-74
2022/01/31 08:01:47;;;;;;;11.85;2.72;;;8.20;99.90;;;;;;5104864;28;20030;-76
2022/01/31 08:04:13;;;;;;;16.75;3.55;;;8.20;99.90;;;;;;5116261;28;20035;-74
2022/01/31 08:06:39;;;;;;;26.83;10.63;;;8.30;99.90;;;;;;5115993;28;20177;-78
2022/01/31 08:09:04;;;;;;;9.80;2.83;;;8.30;99.90;;;;;;5095627;28;20506;-79
2022/01/31 08:11:32;;;;;;;14.68;3.28;;;8.30;99.90;;;;;;5095890;28;20107;-78
2022/01/31 08:14:02;;;;;;;14.68;4.90;;;8.40;99.90;;;;;;5094785;28;20020;-75
2022/01/31 08:16:28;;;;;;;26.63;8.03;;;8.40;99.90;;;;;;5095507;28;20020;-76
2022/01/31 08:18:53;;;;;;;11.45;3.13;;;8.50;99.90;;;;;;5095609;28;20027;-75
2022/01/31 08:21:23;;;;;;;13.82;2.70;;;8.50;99.90;;;;;;5095158;28;20099;-76
2022/01/31 08:23:50;;;;;;;12.00;2.50;;;8.60;99.90;;;;;;5095232;28;20017;-75
2022/01/31 08:26:17;;;;;;;11.18;2.40;;;8.60;99.90;;;;;;5095207;28;20043;-76
2022/01/31 08:28:54;;;;;;;12.38;2.78;;;8.60;99.90;;;;;;5094045;28;20020;-74
2022/01/31 08:31:34;;;;;;;14.18;3.22;;;8.70;99.90;;;;;;5095330;28;20028;-75
2022/01/31 08:36:31;;;;;;;19.05;4.10;;;8.70;99.90;;;;;;5096222;28;20069;-75
2022/01/31 08:38:57;;;;;;;12.95;3.08;;;8.70;99.90;;;;;;5094084;28;20543;-76
2022/01/31 08:41:24;;;;;;;14.45;3.35;;;8.60;99.90;;;;;;5095345;28;20048;-74
2022/01/31 08:43:51;;;;;;;17.30;3.30;;;8.70;99.90;;;;;;5095247;28;20016;-75
2022/01/31 08:46:17;;;;;;;13.60;2.67;;;8.70;99.90;;;;;;5095255;28;20073;-73
2022/01/31 08:48:43;;;;;;;11.18;2.60;;;8.70;99.90;;;;;;5095715;28;20024;-74
2022/01/31 08:51:10;;;;;;;12.85;3.22;;;8.70;99.90;;;;;;5095080;28;20143;-75
2022/01/31 08:53:37;;;;;;;14.30;2.78;;;8.80;99.90;;;;;;5095075;28;20024;-74
2022/01/31 08:56:08;;;;;;;17.08;3.40;;;8.80;99.90;;;;;;5094985;28;20108;-75
2022/01/31 08:58:35;;;;;;;17.05;4.00;;;8.80;99.90;;;;;;5093435;28;20020;-76
2022/01/31 09:01:03;;;;;;;15.40;3.22;;;8.90;99.90;;;;;;5094915;28;20024;-75
2022/01/31 09:03:43;;;;;;;12.52;2.90;;;8.90;99.90;;;;;;5094717;28;20090;-74
2022/01/31 09:06:10;;;;;;;16.45;3.38;;;8.90;99.90;;;;;;5095205;28;20031;-76
2022/01/31 09:08:37;;;;;;;15.05;3.08;;;9.00;99.90;;;;;;5094798;28;20024;-75
2022/01/31 09:11:03;;;;;;;9.02;2.58;;;9.00;99.90;;;;;;5093472;28;20031;-75
2022/01/31 09:13:29;;;;;;;13.98;3.45;;;9.10;99.90;;;;;;5094704;28;20020;-73
2022/01/31 09:15:54;;;;;;;12.13;2.85;;;9.10;99.90;;;;;;5094569;28;20028;-76
2022/01/31 09:18:20;;;;;;;11.45;2.80;;;9.10;99.90;;;;;;5094574;28;20077;-74
2022/01/31 09:20:46;;;;;;;13.38;3.13;;;9.20;99.90;;;;;;5094632;28;20016;-75
2022/01/31 09:23:12;;;;;;;16.05;2.95;;;9.20;99.90;;;;;;5094484;28;20525;-75
2022/01/31 09:25:43;;;;;;;12.27;2.72;;;9.20;99.90;;;;;;5094723;28;20028;-77
2022/01/31 09:28:10;;;;;;;13.60;3.40;;;9.30;99.90;;;;;;5098422;28;20036;-77
2022/01/31 09:30:37;;;;;;;10.98;3.03;;;9.50;99.90;;;;;;5114792;28;20477;-77
2022/01/31 09:33:03;;;;;;;12.75;3.03;;;9.70;99.90;;;;;;5113471;28;20020;-75
2022/01/31 09:35:28;;;;;;;14.10;2.75;;;9.80;99.90;;;;;;5114731;28;20081;-75
2022/01/31 09:37:54;;;;;;;15.20;3.42;;;9.80;99.90;;;;;;5108859;28;20386;-73
2022/01/31 09:40:22;;;;;;;12.95;3.25;;;9.80;99.90;;;;;;5094725;28;20067;-77
2022/01/31 09:51:10;;;;;;;18.33;3.30;;;9.90;99.90;;;;;;5115424;28;20096;-74
2022/01/31 09:53:39;;;;;;;15.63;3.47;;;9.80;99.90;;;;;;5106971;28;20502;-73
2022/01/31 09:56:09;;;;;;;13.68;2.83;;;9.80;99.90;;;;;;5106559;28;20036;-76
2022/01/31 09:58:35;;;;;;;18.05;3.63;;;9.70;99.90;;;;;;5103750;28;20114;-75
2022/01/31 10:01:05;;;;;;;20.13;4.10;;;9.80;99.90;;;;;;5093861;28;20370;-74
2022/01/31 10:03:30;;;;;;;11.70;2.72;;;9.80;99.90;;;;;;5093728;28;20032;-74
2022/01/31 10:05:57;;;;;;;15.95;3.78;;;9.90;99.90;;;;;;5093947;28;20442;-75
2022/01/31 10:08:28;;;;;;;15.82;3.63;;;10.00;99.90;;;;;;5099231;28;20053;-76
2022/01/31 10:11:00;;;;;;;12.40;2.63;;;10.10;99.90;;;;;;5113186;28;20023;-76
2022/01/31 10:16:30;;;;;;;15.23;3.38;;;10.20;99.90;;;;;;5104745;28;20046;-76
2022/01/31 10:19:01;;;;;;;16.42;3.30;;;10.30;99.90;;;;;;5104727;28;20023;-74
2022/01/31 10:21:26;;;;;;;17.20;3.78;;;10.40;99.90;;;;;;5092355;28;20024;-75
2022/01/31 10:23:52;;;;;;;17.15;3.90;;;10.30;99.90;;;;;;5093436;28;20024;-74
2022/01/31 10:26:32;;;;;;;23.17;4.30;;;10.20;99.90;;;;;;5093868;28;20370;-75
2022/01/31 10:29:11;;;;;;;10.73;2.60;;;10.40;99.90;;;;;;5093580;28;20507;-76
2022/01/31 10:31:37;;;;;;;18.85;3.72;;;10.60;99.90;;;;;;5098853;28;20051;-75
2022/01/31 10:34:19;;;;;;;16.45;3.53;;;10.70;99.90;;;;;;5093660;28;20054;-74
2022/01/31 10:36:45;;;;;;;16.90;3.80;;;10.60;99.90;;;;;;5093693;28;20028;-74
2022/01/31 10:43:12;;;;;;;15.70;3.45;;;10.60;99.90;;;;;;5093312;28;20020;-75
2022/01/31 10:45:32;;;;;;;16.35;3.28;;;10.60;99.90;;;;;;5101068;28;20511;-75
2022/01/31 10:51:10;;;;;;;13.10;3.85;;;10.70;99.90;;;;;;5111814;28;20080;-75
2022/01/31 10:53:45;;;;;;;20.63;3.70;;;10.60;99.90;;;;;;5117639;28;20039;-76
2022/01/31 10:56:11;;;;;;;16.15;3.83;;;10.40;99.90;;;;;;5105649;28;20028;-73
2022/01/31 10:58:57;;;;;;;13.10;3.33;;;10.30;99.90;;;;;;5097333;28;20485;-77
2022/01/31 11:01:23;;;;;;;21.00;3.63;;;10.20;99.90;;;;;;5097772;28;20073;-76
2022/01/31 11:03:50;;;;;;;19.20;4.28;;;10.20;99.90;;;;;;5117722;28;20123;-76
2022/01/31 11:06:16;;;;;;;13.60;3.40;;;10.20;99.90;;;;;;5115278;28;20033;-75
2022/01/31 11:08:42;;;;;;;15.90;3.15;;;10.20;99.90;;;;;;5116263;28;20035;-75
2022/01/31 11:11:08;;;;;;;11.73;3.03;;;10.20;99.90;;;;;;5117501;28;20020;-75
2022/01/31 11:13:37;;;;;;;19.98;4.15;;;10.20;99.90;;;;;;5117390;28;20030;-75
2022/01/31 11:16:04;;;;;;;19.70;3.75;;;10.30;99.90;;;;;;5117124;28;20107;-76
2022/01/31 11:18:33;;;;;;;19.23;3.58;;;10.40;99.90;;;;;;5117226;28;20389;-75
2022/01/31 11:21:08;;;;;;;17.73;3.45;;;10.40;99.90;;;;;;5117227;28;20069;-76
2022/01/31 11:23:38;;;;;;;14.65;3.55;;;10.50;99.90;;;;;;5117408;28;20023;-75
2022/01/31 11:26:08;;;;;;;22.45;3.83;;;10.50;99.90;;;;;;5117604;28;20019;-76
2022/01/31 11:28:35;;;;;;;13.25;2.72;;;10.50;99.90;;;;;;5117127;28;20523;-75
2022/01/31 11:31:02;;;;;;;19.83;3.45;;;10.50;99.90;;;;;;5117099;27;20027;-75
2022/01/31 11:33:29;;;;;;;17.05;3.20;;;10.70;99.90;;;;;;5117080;28;20031;-75
2022/01/31 11:35:55;;;;;;;15.85;3.70;;;10.70;99.90;;;;;;5116947;28;20024;-75
2022/01/31 11:38:21;;;;;;;15.35;2.92;;;10.80;99.90;;;;;;5117237;28;20437;-74
2022/01/31 11:40:48;;;;;;;15.02;3.20;;;10.80;99.90;;;;;;5116977;28;20027;-76
2022/01/31 11:43:16;;;;;;;15.48;3.80;;;10.80;99.90;;;;;;5116886;28;20030;-75
2022/01/31 11:45:44;;;;;;;14.25;3.00;;;10.90;99.90;;;;;;5115591;28;20490;-75
2022/01/31 11:48:18;;;;;;;15.38;3.45;;;10.90;99.90;;;;;;5116831;28;20066;-76
2022/01/31 11:50:47;;;;;;;17.42;3.42;;;10.80;99.90;;;;;;5117039;28;20023;-76
2022/01/31 11:53:13;;;;;;;13.38;2.88;;;10.80;99.90;;;;;;5116689;27;20027;-74
2022/01/31 11:55:39;;;;;;;14.95;3.70;;;10.90;99.90;;;;;;5116525;28;20173;-76
2022/01/31 11:58:07;;;;;;;20.20;4.72;;;11.00;99.90;;;;;;5116121;28;20023;-75
2022/01/31 12:00:37;;;;;;;19.85;3.20;;;11.10;99.90;;;;;;5116599;28;20103;-76
2022/01/31 12:03:05;;;;;;;20.13;4.20;;;11.00;99.90;;;;;;5116482;28;20054;-76
2022/01/31 12:05:33;;;;;;;13.93;3.97;;;11.00;99.90;;;;;;5116732;28;20024;-77
2022/01/31 12:08:17;;;;;;;15.80;4.55;;;10.80;99.90;;;;;;5116424;28;20099;-76
2022/01/31 12:11:16;;;;;;;17.10;4.07;;;10.60;99.90;;;;;;5116724;28;20016;-75
2022/01/31 12:13:53;;;;;;;11.27;2.55;;;10.30;99.90;;;;;;5116615;28;20088;-75
2022/01/31 12:22:08;;;;;;;16.17;2.75;;;9.90;99.90;;;;;;5107837;28;20131;-75
2022/01/31 12:24:43;;;;;;;13.15;3.15;;;10.00;99.90;;;;;;5116070;28;20094;-75
2022/01/31 12:27:25;;;;;;;16.73;2.97;;;10.20;99.90;;;;;;5116093;28;20111;-74
2022/01/31 12:29:56;;;;;;;17.13;3.30;;;10.30;99.90;;;;;;5116570;28;20028;-74
2022/01/31 12:32:34;;;;;;;17.73;3.70;;;10.40;99.90;;;;;;5116261;28;20373;-75
2022/01/31 12:35:03;;;;;;;19.42;3.40;;;10.40;99.90;;;;;;5115955;28;20028;-75
2022/01/31 12:37:35;;;;;;;11.20;2.70;;;10.20;99.90;;;;;;5115784;28;20507;-75
2022/01/31 12:40:11;;;;;;;11.95;3.08;;;9.90;99.90;;;;;;5115809;27;20359;-75
2022/01/31 12:42:47;;;;;;;12.35;1.98;;;9.90;99.90;;;;;;5116325;28;20011;-74
2022/01/31 12:45:26;;;;;;;12.48;2.20;;;9.80;99.90;;;;;;5116023;28;20027;-75
2022/01/31 12:48:20;;;;;;;11.77;2.15;;;9.70;99.90;;;;;;5104828;28;20012;-73
2022/01/31 12:50:49;;;;;;;8.25;1.90;;;9.60;99.90;;;;;;5110804;28;20031;-75
2022/01/31 12:53:35;;;;;;;11.05;2.05;;;9.50;99.90;;;;;;5116080;28;20024;-74
2022/01/31 12:56:11;;;;;;;8.13;1.70;;;9.60;99.90;;;;;;5115716;28;20024;-74
2022/01/31 12:58:46;;;;;;;10.95;2.28;;;9.70;99.90;;;;;;5115457;28;20072;-73
2022/01/31 13:01:23;;;;;;;15.20;2.60;;;9.70;99.90;;;;;;5115680;28;20076;-74
2022/01/31 13:04:10;;;;;;;10.77;2.53;;;9.70;99.90;;;;;;5113800;28;20051;-74
2022/01/31 13:06:45;;;;;;;17.55;2.92;;;9.70;99.90;;;;;;5114645;28;20085;-74
2022/01/31 13:09:12;;;;;;;14.20;2.90;;;9.70;99.90;;;;;;5115621;28;20027;-73
2022/01/31 13:11:40;;;;;;;11.63;3.03;;;9.70;99.90;;;;;;5114593;28;20045;-71
2022/01/31 13:14:08;;;;;;;10.50;2.40;;;9.80;99.90;;;;;;5115155;28;20109;-74
2022/01/31 13:17:05;;;;;;;12.48;2.65;;;9.90;99.90;;;;;;5115283;28;20473;-73
2022/01/31 13:19:34;;;;;;;9.30;2.03;;;9.90;99.90;;;;;;5115360;28;20026;-73
2022/01/31 13:22:11;;;;;;;11.60;2.92;;;9.90;99.90;;;;;;5115011;27;20477;-73
2022/01/31 13:24:43;;;;;;;15.15;2.45;;;9.90;99.90;;;;;;5115222;28;20015;-74
2022/01/31 13:27:14;;;;;;;16.10;2.47;;;9.80;99.90;;;;;;5114880;28;20102;-75